Friday, November 17, 2017, 4:12 PM EST
Back to Local

KJYO, Leesburg / Godfrey

Location: Leesburg, VA, United States Lat: 39.083
Local Time: 4:12 PM EST (21:12 GMT) Lon: -77.567
Time Zone: US/Eastern Elev: 390 ft

Show me the last for .
Show Decoded

2017-11-17 15:35 METAR KJYO 172035Z AUTO 32005KT 10SM CLR 10/00 A3016 RMK AO2 =
2017-11-17 15:15 METAR KJYO 172015Z AUTO 33006KT 10SM CLR 11/00 A3015 RMK AO2 =
2017-11-17 14:55 METAR KJYO 171955Z AUTO 34005KT 10SM CLR 11/M01 A3016 RMK AO2 =
2017-11-17 14:35 METAR KJYO 171935Z AUTO 33006KT 10SM CLR 11/00 A3016 RMK AO2 =
2017-11-17 14:15 METAR KJYO 171915Z AUTO 31008KT 10SM CLR 12/00 A3017 RMK AO2 =
2017-11-17 13:55 METAR KJYO 171855Z AUTO 32008KT 10SM CLR 11/M01 A3018 RMK AO2 =
2017-11-17 13:35 METAR KJYO 171835Z AUTO 34007KT 10SM CLR 11/00 A3018 RMK AO2 =
2017-11-17 13:15 METAR KJYO 171815Z AUTO 03006KT 10SM CLR 11/M01 A3018 RMK AO2 =
2017-11-17 12:55 METAR KJYO 171755Z AUTO 35011G15KT 10SM CLR 11/M01 A3018 RMK AO2 =
2017-11-17 12:35 METAR KJYO 171735Z AUTO 34010G14KT 10SM CLR 11/00 A3019 RMK AO2 =
2017-11-17 12:15 METAR KJYO 171715Z AUTO 34010G17KT 10SM CLR 10/00 A3020 RMK AO2 =
2017-11-17 11:55 METAR KJYO 171655Z AUTO 32009G14KT 10SM CLR 10/00 A3022 RMK AO2 =
2017-11-17 11:35 METAR KJYO 171635Z AUTO 33012G15KT 10SM CLR 10/00 A3022 RMK AO2 =
2017-11-17 11:15 METAR KJYO 171615Z AUTO 32011KT 10SM CLR 10/00 A3022 RMK AO2 =
2017-11-17 10:55 METAR KJYO 171555Z AUTO 33012KT 10SM CLR 09/00 A3023 RMK AO2 =
2017-11-17 10:35 METAR KJYO 171535Z AUTO 33014KT 10SM CLR 08/00 A3024 RMK AO2 =
2017-11-17 10:15 METAR KJYO 171515Z AUTO 32014G21KT 10SM CLR 08/00 A3024 RMK AO2 =
2017-11-17 09:55 METAR KJYO 171455Z AUTO 34010G20KT 10SM CLR 07/00 A3023 RMK AO2 =
2017-11-17 09:35 METAR KJYO 171435Z AUTO 34013G22KT 10SM CLR 07/00 A3022 RMK AO2 =
2017-11-17 09:15 METAR KJYO 171415Z AUTO 32020G25KT 10SM CLR 07/00 A3021 RMK AO2 =
2017-11-17 08:55 METAR KJYO 171355Z AUTO 35015G18KT 10SM CLR 07/00 A3022 RMK AO2 =
2017-11-17 08:35 METAR KJYO 171335Z AUTO 34010G15KT 10SM CLR 06/00 A3022 RMK AO2 =
2017-11-17 08:15 METAR KJYO 171315Z AUTO 34007KT 10SM CLR 06/00 A3022 RMK AO2 =
2017-11-17 07:55 METAR KJYO 171255Z AUTO 32010KT 10SM CLR 05/00 A3022 RMK AO2 =
2017-11-17 07:35 METAR KJYO 171235Z AUTO 32009KT 10SM CLR 04/00 A3021 RMK AO2 =
2017-11-17 07:15 METAR KJYO 171215Z AUTO 31006KT 10SM CLR 03/00 A3021 RMK AO2 =
2017-11-17 06:55 METAR KJYO 171155Z AUTO 31009KT 10SM CLR 03/00 A3020 RMK AO2 =
2017-11-17 06:35 METAR KJYO 171135Z AUTO 28004KT 10SM CLR 03/00 A3020 RMK AO2 =
2017-11-17 06:15 METAR KJYO 171115Z AUTO 28005KT 10SM CLR 04/00 A3019 RMK AO2 =
2017-11-17 05:55 METAR KJYO 171055Z AUTO 30011KT 10SM CLR 05/00 A3018 RMK AO2 =
2017-11-17 05:35 METAR KJYO 171035Z AUTO 31010KT 10SM CLR 05/00 A3018 RMK AO2 =
2017-11-17 05:15 METAR KJYO 171015Z AUTO 31011KT 10SM VCTS CLR 05/00 A3016 RMK AO2 =
2017-11-17 04:55 METAR KJYO 170955Z AUTO 30013KT 10SM BKN042 05/00 A3016 RMK AO2 =
2017-11-17 04:35 METAR KJYO 170935Z AUTO 27005KT 10SM OVC042 05/00 A3016 RMK AO2 =
2017-11-17 04:15 METAR KJYO 170915Z AUTO 30008KT 10SM BKN042 05/00 A3016 RMK AO2 =
2017-11-17 03:55 METAR KJYO 170855Z AUTO 31008KT 10SM OVC042 06/00 A3015 RMK AO2 =
2017-11-17 03:35 METAR KJYO 170835Z AUTO 29008KT 10SM OVC042 06/00 A3015 RMK AO2 =
2017-11-17 03:15 METAR KJYO 170815Z AUTO 30004KT 10SM OVC042 06/00 A3015 RMK AO2 =
2017-11-17 02:55 METAR KJYO 170755Z AUTO 31006KT 10SM OVC042 06/00 A3014 RMK AO2 =
2017-11-17 02:35 METAR KJYO 170735Z AUTO 30010G14KT 10SM OVC042 06/00 A3014 RMK AO2 =
2017-11-17 02:15 METAR KJYO 170715Z AUTO 32004KT 10SM OVC044 07/00 A3014 RMK AO2 =
2017-11-17 01:55 METAR KJYO 170655Z AUTO 30014G19KT 10SM BKN044 06/00 A3013 RMK AO2 =
2017-11-17 01:35 METAR KJYO 170635Z AUTO 30012KT 10SM OVC044 07/00 A3013 RMK AO2 =
2017-11-17 01:15 METAR KJYO 170615Z AUTO 30010KT 10SM OVC044 07/00 A3013 RMK AO2 =
2017-11-17 00:55 METAR KJYO 170555Z AUTO 29010KT 10SM OVC044 07/00 A3013 RMK AO2 =
2017-11-17 00:35 METAR KJYO 170535Z AUTO 30008KT 10SM OVC044 07/00 A3012 RMK AO2 =
2017-11-17 00:15 METAR KJYO 170515Z AUTO 31012KT 10SM OVC044 07/00 A3012 RMK AO2 =
2017-11-16 23:55 METAR KJYO 170455Z AUTO 30007KT 10SM OVC044 07/00 A3012 RMK AO2 =
2017-11-16 23:35 METAR KJYO 170435Z AUTO 31008KT 10SM OVC042 07/00 A3011 RMK AO2 =
2017-11-16 23:15 METAR KJYO 170415Z AUTO 33009KT 10SM OVC042 07/01 A3011 RMK AO2 =
2017-11-16 22:55 METAR KJYO 170355Z AUTO 33010G15KT 10SM OVC040 07/01 A3012 RMK AO2 =
2017-11-16 22:35 METAR KJYO 170335Z AUTO 32009G16KT 10SM OVC040 07/01 A3012 RMK AO2 =
2017-11-16 22:15 METAR KJYO 170315Z AUTO 32012G16KT 10SM OVC042 07/01 A3012 RMK AO2 =
2017-11-16 21:55 METAR KJYO 170255Z AUTO 32015G22KT 10SM OVC042 07/01 A3011 RMK AO2 =
2017-11-16 21:35 METAR KJYO 170235Z AUTO 33013G20KT 10SM OVC040 07/01 A3011 RMK AO2 =
2017-11-16 21:15 METAR KJYO 170215Z AUTO 33011G18KT 10SM OVC038 07/01 A3011 RMK AO2 =
2017-11-16 20:55 METAR KJYO 170155Z AUTO 34009KT 10SM OVC038 07/01 A3011 RMK AO2 =
2017-11-16 20:35 METAR KJYO 170135Z AUTO 33011G18KT 10SM OVC038 07/01 A3010 RMK AO2 =
2017-11-16 20:15 METAR KJYO 170115Z AUTO 32009G17KT 10SM OVC038 07/01 A3009 RMK AO2 =
2017-11-16 19:55 METAR KJYO 170055Z AUTO 34007G15KT 10SM OVC040 07/01 A3009 RMK AO2 =
2017-11-16 19:35 METAR KJYO 170035Z AUTO 33010G15KT 10SM OVC040 07/01 A3009 RMK AO2 =
2017-11-16 19:15 METAR KJYO 170015Z AUTO 34012KT 10SM BKN042 BKN048 08/01 A3008 RMK AO2 =
2017-11-16 18:55 METAR KJYO 162355Z AUTO 32010G17KT 10SM SCT046 08/01 A3008 RMK AO2 =
2017-11-16 18:35 METAR KJYO 162335Z AUTO 33015G21KT 10SM BKN048 08/01 A3006 RMK AO2 =
2017-11-16 18:15 METAR KJYO 162315Z AUTO 33013G20KT 10SM SCT048 08/01 A3005 RMK AO2 =
2017-11-16 17:55 METAR KJYO 162255Z AUTO 33015G22KT 10SM CLR 08/01 A3003 RMK AO2 =
2017-11-16 17:35 METAR KJYO 162235Z AUTO 33016G21KT 10SM CLR 09/01 A3003 RMK AO2 =
2017-11-16 17:15 METAR KJYO 162215Z AUTO 33016G23KT 10SM CLR 10/01 A3001 RMK AO2 =
2017-11-16 16:55 METAR KJYO 162155Z AUTO 32014G18KT 10SM CLR 10/01 A3000 RMK AO2 =
2017-11-16 16:35 METAR KJYO 162135Z AUTO 31015G22KT 10SM CLR 11/01 A2998 RMK AO2 =
2017-11-16 16:15 METAR KJYO 162115Z AUTO 31016G24KT 10SM CLR 12/01 A2997 RMK AO2 =

Support USWX by starting your Amazon purchase here.